East Palmyra, New York
Current Conditions -  °F | °C
As of 7:54 PM on Tuesday 21 Oct 2014 (Local Time) from KROC Reporting Station
Light Rain Light Rain  
Wind Chill: 42°   Ceiling: 600
Heat Index: 48°   Visibility: 6mi
Dew Point: 46°   Wind: 17mph
Humidity: 93%   Direction: 40°NE
Pressure: 30"   Gusts: 25mph
Location:  43.0687°N, 77.0977°W
Report Text: KROC 212354Z 04015G22KT 6SM -RA BR OVC006 09/08 A3000 RMK AO2 PK WND 05026/2330 RAE28B37 SLP166 P0000 60002 T00890078 10128 20089 51031
Loading
Personal Weather Stations






























Interactive Weather Map
Tropical Storm Tracking
New forecast layout! Learn more

10-Day Weather Forecast

Advertisements
Track Severe Weather on mobile